createdAt,value
2018-07-30T00:00:37.139Z,24.14
2018-07-30T00:01:37.119Z,24.08
2018-07-30T00:02:37.100Z,24.08
2018-07-30T00:03:37.080Z,24.12
2018-07-30T00:04:37.061Z,24.12
2018-07-30T00:05:37.036Z,24.15
2018-07-30T00:06:37.017Z,24.04
2018-07-30T00:07:36.998Z,24.05
2018-07-30T00:08:37.172Z,24.04
2018-07-30T00:09:36.952Z,24.06
2018-07-30T00:10:36.931Z,24.06
2018-07-30T00:11:36.911Z,24.06
2018-07-30T00:12:36.892Z,23.99
2018-07-30T00:13:36.871Z,24.00
2018-07-30T00:14:36.848Z,23.96
2018-07-30T00:15:36.824Z,23.93
2018-07-30T00:16:36.802Z,23.92
2018-07-30T00:17:36.784Z,23.93
2018-07-30T00:18:36.764Z,23.87
2018-07-30T00:19:36.741Z,23.96
2018-07-30T00:20:36.931Z,23.81
2018-07-30T00:21:36.697Z,23.81
2018-07-30T00:22:36.713Z,23.74
2018-07-30T00:23:36.860Z,23.78
2018-07-30T00:24:36.640Z,23.77
2018-07-30T00:25:36.616Z,23.71
2018-07-30T00:26:36.794Z,23.69
2018-07-30T00:27:36.775Z,23.68
2018-07-30T00:28:36.551Z,23.64
2018-07-30T00:29:36.581Z,23.69
2018-07-30T00:30:36.713Z,23.68
2018-07-30T00:31:36.693Z,23.68
2018-07-30T00:32:36.669Z,23.67
2018-07-30T00:33:36.452Z,23.56
2018-07-30T00:34:36.427Z,23.57
2018-07-30T00:35:36.405Z,23.57
2018-07-30T00:36:36.388Z,23.57
2018-07-30T00:37:36.363Z,23.54
2018-07-30T00:38:36.340Z,23.54
2018-07-30T00:39:36.536Z,23.56
2018-07-30T00:40:36.500Z,23.57
2018-07-30T00:41:39.101Z,23.54
2018-07-30T00:42:36.258Z,23.63
2018-07-30T00:43:36.439Z,23.47
2018-07-30T00:44:36.215Z,23.52
2018-07-30T00:45:36.396Z,23.52
2018-07-30T00:46:36.171Z,23.47
2018-07-30T00:47:36.148Z,23.47
2018-07-30T00:48:36.126Z,23.45
2018-07-30T00:49:36.309Z,23.44
2018-07-30T00:50:36.089Z,23.47
2018-07-30T00:51:36.065Z,23.38
2018-07-30T00:52:36.047Z,23.35
2018-07-30T00:53:39.454Z,23.45
2018-07-30T00:54:36.203Z,23.34
2018-07-30T00:55:35.980Z,23.34
2018-07-30T00:56:35.959Z,23.35
2018-07-30T00:57:35.939Z,23.31
2018-07-30T00:58:35.923Z,23.39
2018-07-30T00:59:35.896Z,23.38
2018-07-30T01:00:35.877Z,23.23
2018-07-30T01:01:35.854Z,23.23
2018-07-30T01:02:35.831Z,23.29
2018-07-30T01:03:35.809Z,23.25
2018-07-30T01:04:35.788Z,23.34
2018-07-30T01:05:35.971Z,23.31
2018-07-30T01:06:35.750Z,23.32
2018-07-30T01:07:35.965Z,23.37
2018-07-30T01:08:35.701Z,23.37
2018-07-30T01:09:35.684Z,23.35
2018-07-30T01:10:35.661Z,23.34
2018-07-30T01:11:35.645Z,23.38
2018-07-30T01:12:35.619Z,23.37
2018-07-30T01:13:35.600Z,23.32
2018-07-30T01:14:35.575Z,23.34
2018-07-30T01:15:35.555Z,23.41
2018-07-30T01:16:35.531Z,23.29
2018-07-30T01:17:35.511Z,23.19
2018-07-30T01:18:35.693Z,23.22
2018-07-30T01:19:35.471Z,23.25
2018-07-30T01:20:35.449Z,23.19
2018-07-30T01:21:35.686Z,23.11
2018-07-30T01:22:35.406Z,23.16
2018-07-30T01:23:35.384Z,23.11
2018-07-30T01:24:35.565Z,23.06
2018-07-30T01:25:35.342Z,23.12
2018-07-30T01:26:35.318Z,23.14
2018-07-30T01:27:35.300Z,23.14
2018-07-30T01:28:35.276Z,23.09
2018-07-30T01:29:35.255Z,23.00
2018-07-30T01:30:35.242Z,23.07
2018-07-30T01:31:35.424Z,22.97
2018-07-30T01:32:35.192Z,22.97
2018-07-30T01:33:35.171Z,22.96
2018-07-30T01:34:35.148Z,22.94
2018-07-30T01:35:37.951Z,22.97
2018-07-30T01:36:35.105Z,22.94
2018-07-30T01:37:35.285Z,22.96
2018-07-30T01:38:35.068Z,22.96
2018-07-30T01:39:35.042Z,22.89
2018-07-30T01:40:35.018Z,22.94
2018-07-30T01:41:34.999Z,22.91
2018-07-30T01:42:35.181Z,22.93
2018-07-30T01:43:35.160Z,22.93
2018-07-30T01:44:35.142Z,22.93
2018-07-30T01:45:34.913Z,22.96
2018-07-30T01:46:34.891Z,22.85
2018-07-30T01:47:35.073Z,22.89
2018-07-30T01:48:34.846Z,22.85
2018-07-30T01:49:34.826Z,22.81
2018-07-30T01:50:35.012Z,22.76
2018-07-30T01:51:34.793Z,22.78
2018-07-30T01:52:34.764Z,22.74
2018-07-30T01:53:34.749Z,22.79
2018-07-30T01:54:34.720Z,22.86
2018-07-30T01:55:34.996Z,22.81
2018-07-30T01:56:34.676Z,22.84
2018-07-30T01:57:34.655Z,22.84
2018-07-30T01:58:34.634Z,22.86
2018-07-30T01:59:34.613Z,22.79
2018-07-30T02:00:34.595Z,22.88
2018-07-30T02:01:34.568Z,22.81
2018-07-30T02:02:34.552Z,22.76
2018-07-30T02:03:34.535Z,22.75
2018-07-30T02:04:34.505Z,22.75
2018-07-30T02:05:34.488Z,22.74
2018-07-30T02:06:34.461Z,22.74
2018-07-30T02:07:34.439Z,22.78
2018-07-30T02:08:34.619Z,22.70
2018-07-30T02:09:34.397Z,22.75
2018-07-30T02:10:34.577Z,22.78
2018-07-30T02:11:34.354Z,22.78
2018-07-30T02:12:34.336Z,22.74
2018-07-30T02:13:34.309Z,22.70
2018-07-30T02:14:34.291Z,22.72
2018-07-30T02:15:34.270Z,22.76
2018-07-30T02:16:34.247Z,22.81
2018-07-30T02:17:34.226Z,22.85
2018-07-30T02:18:34.202Z,22.89
2018-07-30T02:19:34.384Z,22.93
2018-07-30T02:20:34.361Z,22.88
2018-07-30T02:21:34.226Z,22.79
2018-07-30T02:22:34.119Z,22.76
2018-07-30T02:23:34.099Z,22.75
2018-07-30T02:24:34.075Z,22.75
2018-07-30T02:25:34.057Z,22.70
2018-07-30T02:26:34.032Z,22.75
2018-07-30T02:27:34.012Z,22.66
2018-07-30T02:28:33.988Z,22.63
2018-07-30T02:29:33.969Z,22.70
2018-07-30T02:30:33.944Z,22.67
2018-07-30T02:31:33.921Z,22.66
2018-07-30T02:32:33.899Z,22.67
2018-07-30T02:33:33.879Z,22.63
2018-07-30T02:34:34.061Z,22.56
2018-07-30T02:35:33.839Z,22.59
2018-07-30T02:36:33.816Z,22.63
2018-07-30T02:37:33.798Z,22.63
2018-07-30T02:38:33.771Z,22.67
2018-07-30T02:39:33.749Z,22.63
2018-07-30T02:40:33.726Z,22.75
2018-07-30T02:41:33.706Z,22.75
2018-07-30T02:42:33.887Z,22.67
2018-07-30T02:43:33.664Z,22.72
2018-07-30T02:44:33.644Z,22.67
2018-07-30T02:45:33.628Z,22.66
2018-07-30T02:46:33.601Z,22.54
2018-07-30T02:47:33.578Z,22.61
2018-07-30T02:48:33.556Z,22.67
2018-07-30T02:49:33.539Z,22.52
2018-07-30T02:50:33.512Z,22.56
2018-07-30T02:51:33.492Z,22.60
2018-07-30T02:52:33.469Z,22.59
2018-07-30T02:53:33.447Z,22.56
2018-07-30T02:54:33.431Z,22.51
2018-07-30T02:55:33.414Z,22.51
2018-07-30T02:56:33.390Z,22.56
2018-07-30T02:57:33.581Z,22.52
2018-07-30T02:58:33.340Z,22.56
2018-07-30T02:59:33.318Z,22.57
2018-07-30T03:00:33.296Z,22.51
2018-07-30T03:01:33.275Z,22.64
2018-07-30T03:02:33.254Z,22.60
2018-07-30T03:03:33.235Z,22.54
2018-07-30T03:04:33.212Z,22.63
2018-07-30T03:05:33.191Z,22.63
2018-07-30T03:06:33.167Z,22.49
2018-07-30T03:07:33.148Z,22.57
2018-07-30T03:08:33.324Z,22.54
2018-07-30T03:09:33.102Z,22.60
2018-07-30T03:10:33.083Z,22.57
2018-07-30T03:11:33.264Z,22.57
2018-07-30T03:12:33.039Z,22.48
2018-07-30T03:13:33.018Z,22.51
2018-07-30T03:14:32.997Z,22.46
2018-07-30T03:15:32.976Z,22.41
2018-07-30T03:16:32.954Z,22.38
2018-07-30T03:17:32.937Z,22.27
2018-07-30T03:18:32.907Z,22.36
2018-07-30T03:19:32.887Z,22.27
2018-07-30T03:20:32.865Z,22.36
2018-07-30T03:21:32.846Z,22.31
2018-07-30T03:22:33.029Z,22.39
2018-07-30T03:23:32.803Z,22.48
2018-07-30T03:24:32.779Z,22.41
2018-07-30T03:25:32.765Z,22.41
2018-07-30T03:26:32.735Z,22.46
2018-07-30T03:27:32.719Z,22.48
2018-07-30T03:28:32.695Z,22.51
2018-07-30T03:29:32.669Z,22.51
2018-07-30T03:30:32.652Z,22.51
2018-07-30T03:31:32.626Z,22.51
2018-07-30T03:32:32.621Z,22.51
2018-07-30T03:33:32.585Z,22.54
2018-07-30T03:34:32.565Z,22.46
2018-07-30T03:35:32.544Z,22.51
2018-07-30T03:36:32.520Z,22.45
2018-07-30T03:37:32.499Z,22.46
2018-07-30T03:38:32.478Z,22.54
2018-07-30T03:39:32.453Z,22.52
2018-07-30T03:40:32.431Z,22.52
2018-07-30T03:41:32.411Z,22.46
2018-07-30T03:42:32.391Z,22.48
2018-07-30T03:43:32.370Z,22.45
2018-07-30T03:44:32.347Z,22.52
2018-07-30T03:45:32.331Z,22.52
2018-07-30T03:46:32.304Z,22.52
2018-07-30T03:47:32.282Z,22.54
2018-07-30T03:48:32.260Z,22.52
2018-07-30T03:49:32.240Z,22.49
2018-07-30T03:50:32.215Z,22.54
2018-07-30T03:51:32.197Z,22.54
2018-07-30T03:52:32.186Z,22.57
2018-07-30T03:53:32.154Z,22.54
2018-07-30T03:54:32.134Z,22.56
2018-07-30T03:55:32.112Z,22.54
2018-07-30T03:56:32.088Z,22.54
2018-07-30T03:57:32.067Z,22.67
2018-07-30T03:58:32.046Z,22.56
2018-07-30T03:59:32.026Z,22.56
2018-07-30T04:00:32.001Z,22.63
2018-07-30T04:01:31.987Z,22.67
2018-07-30T04:02:31.958Z,22.69
2018-07-30T04:03:31.936Z,22.64
2018-07-30T04:04:31.916Z,22.61
2018-07-30T04:05:31.893Z,22.69
2018-07-30T04:06:31.910Z,22.72
2018-07-30T04:07:31.854Z,22.74
2018-07-30T04:08:31.831Z,22.76
2018-07-30T04:09:31.809Z,22.67
2018-07-30T04:10:31.787Z,22.70
2018-07-30T04:11:31.766Z,22.72
2018-07-30T04:12:31.743Z,22.72
2018-07-30T04:13:31.723Z,22.76
2018-07-30T04:14:31.704Z,22.78
2018-07-30T04:15:31.683Z,22.78
2018-07-30T04:16:31.666Z,22.79
2018-07-30T04:17:31.638Z,22.85
2018-07-30T04:18:31.622Z,22.78
2018-07-30T04:19:31.597Z,22.85
2018-07-30T04:20:31.575Z,22.81
2018-07-30T04:21:31.555Z,23.03
2018-07-30T04:22:31.537Z,23.23
2018-07-30T04:23:31.511Z,23.41
2018-07-30T04:24:34.312Z,23.64
2018-07-30T04:25:31.671Z,23.84
2018-07-30T04:26:31.449Z,23.92
2018-07-30T04:27:31.433Z,23.94
2018-07-30T04:28:31.405Z,24.11
2018-07-30T04:29:31.387Z,23.93
2018-07-30T04:30:31.363Z,23.82
2018-07-30T04:31:31.343Z,23.68
2018-07-30T04:32:31.326Z,23.50
2018-07-30T04:33:31.304Z,23.49
2018-07-30T04:34:31.282Z,23.37
2018-07-30T04:35:31.260Z,23.34
2018-07-30T04:36:31.238Z,23.15
2018-07-30T04:37:31.218Z,23.34
2018-07-30T04:38:31.201Z,23.44
2018-07-30T04:39:31.180Z,23.45
2018-07-30T04:40:31.159Z,23.37
2018-07-30T04:41:31.138Z,23.35
2018-07-30T04:42:31.117Z,23.38
2018-07-30T04:43:31.097Z,23.37
2018-07-30T04:44:31.076Z,23.50
2018-07-30T04:45:31.056Z,23.52
2018-07-30T04:46:31.035Z,23.52
2018-07-30T04:47:31.016Z,23.52
2018-07-30T04:48:31.003Z,23.47
2018-07-30T04:49:30.996Z,23.57
2018-07-30T04:50:30.954Z,23.74
2018-07-30T04:51:30.934Z,23.87
2018-07-30T04:52:30.912Z,23.87
2018-07-30T04:53:30.897Z,23.97
2018-07-30T04:54:31.075Z,24.08
2018-07-30T04:55:30.854Z,24.19
2018-07-30T04:56:30.829Z,24.09
2018-07-30T04:57:30.808Z,24.08
2018-07-30T04:58:30.792Z,24.14
2018-07-30T04:59:30.771Z,24.04
2018-07-30T05:00:30.749Z,23.97
2018-07-30T05:01:30.935Z,24.00
2018-07-30T05:02:30.716Z,24.00
2018-07-30T05:03:30.704Z,24.12
2018-07-30T05:04:30.668Z,24.08
2018-07-30T05:05:30.649Z,24.15
2018-07-30T05:06:30.645Z,24.27
2018-07-30T05:08:12.965Z,24.29
2018-07-30T05:09:12.743Z,24.30
2018-07-30T05:10:12.723Z,24.24
2018-07-30T05:11:12.713Z,24.31
2018-07-30T05:12:12.715Z,24.41
2018-07-30T05:13:12.665Z,24.48
2018-07-30T05:14:12.651Z,24.46
2018-07-30T05:15:12.830Z,24.33
2018-07-30T05:16:12.604Z,24.46
2018-07-30T05:17:12.584Z,24.49
2018-07-30T05:18:12.767Z,24.44
2018-07-30T05:19:12.595Z,24.23
2018-07-30T05:20:12.527Z,24.21
2018-07-30T05:21:12.506Z,24.26
2018-07-30T05:22:12.488Z,24.18
2018-07-30T05:23:12.468Z,24.19
2018-07-30T05:24:12.455Z,24.18
2018-07-30T05:25:12.430Z,24.12
2018-07-30T05:26:12.411Z,24.11
2018-07-30T05:27:12.387Z,24.16
2018-07-30T05:28:12.366Z,24.21
2018-07-30T05:29:12.347Z,24.29
2018-07-30T05:30:12.330Z,24.33
2018-07-30T05:31:12.309Z,24.27
2018-07-30T05:32:12.291Z,24.49
2018-07-30T05:33:12.272Z,24.30
2018-07-30T05:34:12.279Z,24.31
2018-07-30T05:35:12.229Z,24.42
2018-07-30T05:36:12.210Z,24.44
2018-07-30T05:37:12.197Z,24.44
2018-07-30T05:38:12.170Z,24.56
2018-07-30T05:39:12.168Z,24.90
2018-07-30T05:40:12.134Z,25.67
2018-07-30T05:41:12.112Z,26.12
2018-07-30T05:42:54.461Z,26.47
2018-07-30T05:43:54.229Z,26.38
2018-07-30T05:44:54.208Z,26.60
2018-07-30T05:45:54.192Z,26.61
2018-07-30T05:46:54.173Z,26.36
2018-07-30T05:47:54.156Z,26.20
2018-07-30T05:48:54.137Z,25.67
2018-07-30T05:49:54.128Z,25.44
2018-07-30T05:50:54.101Z,25.39
2018-07-30T05:51:54.076Z,25.29
2018-07-30T05:52:54.058Z,25.16
2018-07-30T05:53:54.042Z,25.09
2018-07-30T05:54:54.026Z,24.98
2018-07-30T05:55:54.002Z,25.05
2018-07-30T05:56:53.989Z,24.92
2018-07-30T05:57:53.966Z,24.98
2018-07-30T05:58:53.948Z,24.93
2018-07-30T05:59:54.049Z,24.87
2018-07-30T06:00:53.909Z,24.82
2018-07-30T06:01:54.189Z,24.90
2018-07-30T06:02:53.871Z,24.92
2018-07-30T06:03:53.858Z,24.86
2018-07-30T06:04:53.840Z,24.87
2018-07-30T06:05:53.815Z,24.79
2018-07-30T06:06:53.798Z,24.82
2018-07-30T06:07:53.786Z,24.70
2018-07-30T06:08:53.759Z,24.82
2018-07-30T06:09:53.739Z,24.67
2018-07-30T06:10:53.921Z,24.83
2018-07-30T06:11:53.704Z,24.80
2018-07-30T06:12:53.683Z,24.97
2018-07-30T06:13:53.663Z,24.98
2018-07-30T06:14:53.644Z,24.75
2018-07-30T06:15:53.625Z,24.84
2018-07-30T06:16:53.606Z,24.92
2018-07-30T06:17:53.590Z,24.93
2018-07-30T06:18:53.570Z,25.05
2018-07-30T06:19:53.550Z,24.80
2018-07-30T06:20:53.585Z,24.90
2018-07-30T06:21:53.513Z,24.93
2018-07-30T06:22:53.496Z,24.93
2018-07-30T06:23:53.480Z,25.04
2018-07-30T06:24:53.457Z,25.34
2018-07-30T06:25:53.440Z,25.64
2018-07-30T06:26:53.627Z,25.89
2018-07-30T06:27:53.401Z,26.39
2018-07-30T06:28:53.384Z,26.34
2018-07-30T06:29:53.369Z,26.21
2018-07-30T06:30:53.550Z,26.20
2018-07-30T06:31:53.678Z,26.21
2018-07-30T06:32:53.313Z,26.57
2018-07-30T06:33:53.297Z,26.98
2018-07-30T06:34:53.280Z,27.69
2018-07-30T06:35:53.255Z,28.20
2018-07-30T06:36:53.240Z,28.35
2018-07-30T06:37:53.220Z,28.97
2018-07-30T06:38:53.204Z,29.27
2018-07-30T06:39:53.188Z,29.45
2018-07-30T06:40:53.374Z,29.05
2018-07-30T06:41:53.156Z,28.62
2018-07-30T06:42:53.133Z,28.18
2018-07-30T06:43:53.120Z,27.96
2018-07-30T06:44:53.102Z,27.93
2018-07-30T06:45:53.086Z,27.50
2018-07-30T06:46:53.068Z,27.34
2018-07-30T06:47:53.272Z,26.59
2018-07-30T06:48:53.035Z,26.57
2018-07-30T06:49:53.020Z,26.86
2018-07-30T06:50:53.000Z,26.87
2018-07-30T06:51:52.983Z,26.75
2018-07-30T06:52:52.967Z,26.46
2018-07-30T06:53:52.953Z,26.24
2018-07-30T06:54:52.935Z,27.28
2018-07-30T06:55:52.922Z,28.51
2018-07-30T06:56:52.903Z,29.51
2018-07-30T06:57:52.890Z,30.53
2018-07-30T06:58:53.072Z,30.94
2018-07-30T06:59:52.852Z,31.47
2018-07-30T07:00:53.038Z,32.32
2018-07-30T07:01:53.026Z,32.49
2018-07-30T07:02:53.009Z,32.68
2018-07-30T07:03:52.990Z,32.87
2018-07-30T07:04:52.978Z,32.51
2018-07-30T07:05:52.964Z,32.39
2018-07-30T07:06:55.571Z,31.30
2018-07-30T07:07:55.556Z,31.23
2018-07-30T07:09:35.078Z,32.39
2018-07-30T07:10:38.493Z,32.81
2018-07-30T07:11:34.846Z,31.15
2018-07-30T07:12:35.337Z,30.68
2018-07-30T07:13:34.819Z,30.42
2018-07-30T07:14:37.642Z,29.99
2018-07-30T07:15:34.801Z,29.66
2018-07-30T07:16:35.030Z,28.87
2018-07-30T07:17:34.762Z,27.88
2018-07-30T07:18:37.572Z,27.72
2018-07-30T07:19:34.935Z,27.84
2018-07-30T07:20:34.966Z,28.13
2018-07-30T07:21:34.726Z,29.08
2018-07-30T07:22:34.690Z,30.22
2018-07-30T07:23:34.677Z,30.08
2018-07-30T07:24:34.865Z,29.47
2018-07-30T07:25:34.658Z,29.33
2018-07-30T07:26:34.638Z,28.89
2018-07-30T07:27:34.621Z,28.24
2018-07-30T07:28:34.606Z,28.17
2018-07-30T07:29:34.592Z,27.98
2018-07-30T07:30:34.577Z,28.38
2018-07-30T07:31:34.565Z,29.00
2018-07-30T07:32:34.554Z,29.33
2018-07-30T07:33:34.540Z,29.78
2018-07-30T07:34:34.527Z,29.89
2018-07-30T07:35:34.514Z,29.57
2018-07-30T07:36:34.700Z,29.60
2018-07-30T07:37:34.483Z,30.10
2018-07-30T07:38:34.680Z,30.06
2018-07-30T07:39:34.464Z,29.17
2018-07-30T07:40:34.647Z,29.23
2018-07-30T07:41:34.637Z,29.45
2018-07-30T07:42:37.647Z,29.55
2018-07-30T07:43:34.609Z,29.51
2018-07-30T07:44:34.597Z,29.08
2018-07-30T07:45:34.385Z,29.08
2018-07-30T07:46:34.371Z,28.73
2018-07-30T07:47:34.356Z,29.48
2018-07-30T07:48:34.396Z,29.48
2018-07-30T07:49:34.335Z,30.19
2018-07-30T07:50:34.348Z,29.64
2018-07-30T07:51:34.317Z,29.67
2018-07-30T07:52:34.495Z,29.62
2018-07-30T07:53:34.286Z,29.62
2018-07-30T07:54:34.268Z,29.27
2018-07-30T07:55:34.254Z,29.37
2018-07-30T07:56:34.242Z,29.32
2018-07-30T07:57:34.227Z,29.12
2018-07-30T07:58:34.215Z,29.44
2018-07-30T07:59:34.207Z,30.73
2018-07-30T08:00:34.185Z,31.42
2018-07-30T08:01:34.172Z,31.69
2018-07-30T08:02:34.171Z,32.22
2018-07-30T08:03:34.145Z,32.41
2018-07-30T08:04:34.134Z,31.13
2018-07-30T08:05:34.120Z,30.36
2018-07-30T08:06:34.308Z,30.23
2018-07-30T08:07:34.297Z,30.82
2018-07-30T08:08:34.284Z,30.91
2018-07-30T08:09:34.271Z,31.23
2018-07-30T08:14:05.057Z,30.82
2018-07-30T08:15:04.844Z,30.83
2018-07-30T08:16:04.829Z,30.29
2018-07-30T08:17:04.820Z,30.42
2018-07-30T08:18:04.815Z,30.98
2018-07-30T08:19:04.793Z,30.97
2018-07-30T08:20:04.801Z,30.82
2018-07-30T08:21:04.766Z,30.90
2018-07-30T08:22:04.753Z,30.44
2018-07-30T08:23:04.740Z,30.45
2018-07-30T08:24:04.729Z,30.64
2018-07-30T08:25:04.718Z,30.63
2018-07-30T08:26:04.702Z,30.57
2018-07-30T08:27:04.690Z,30.10
2018-07-30T08:28:04.677Z,30.01
2018-07-30T08:29:04.678Z,29.79
2018-07-30T08:30:04.652Z,29.51
2018-07-30T08:31:04.638Z,30.07
2018-07-30T08:32:04.625Z,30.78
2018-07-30T08:33:04.699Z,30.79
2018-07-30T08:34:04.598Z,31.38
2018-07-30T08:35:46.948Z,31.78
2018-07-30T08:36:46.935Z,31.99
2018-07-30T08:37:46.922Z,32.24
2018-07-30T08:38:50.749Z,31.28
2018-07-30T08:39:46.901Z,30.38
2018-07-30T08:41:29.050Z,30.42
2018-07-30T08:42:29.037Z,30.53
2018-07-30T08:43:29.027Z,31.23
2018-07-30T08:45:11.439Z,30.70
2018-07-30T08:46:53.590Z,31.41
2018-07-30T08:47:53.584Z,31.19
2018-07-30T08:48:53.427Z,30.36
2018-07-30T08:49:53.559Z,29.78
2018-07-30T08:50:53.542Z,29.92
2018-07-30T08:52:35.692Z,30.34
2018-07-30T08:53:39.156Z,30.49
2018-07-30T08:54:35.667Z,30.82
2018-07-30T08:55:35.655Z,30.97
2018-07-30T08:56:35.642Z,30.90
2018-07-30T08:57:35.629Z,30.97
2018-07-30T08:58:35.618Z,31.46
2018-07-30T08:59:35.602Z,31.74
2018-07-30T09:00:35.589Z,32.13
2018-07-30T09:01:35.376Z,32.13
2018-07-30T09:02:35.361Z,32.27
2018-07-30T09:03:35.350Z,31.65
2018-07-30T09:04:35.539Z,30.90
2018-07-30T09:05:35.526Z,30.54
2018-07-30T09:06:35.312Z,30.63
2018-07-30T09:07:35.503Z,31.01
2018-07-30T09:08:35.491Z,31.23
2018-07-30T09:09:35.275Z,31.46
2018-07-30T09:10:35.264Z,31.49
2018-07-30T09:11:35.257Z,31.45
2018-07-30T09:12:35.573Z,31.41
2018-07-30T09:13:35.219Z,31.41
2018-07-30T09:14:35.207Z,31.34
2018-07-30T09:15:35.196Z,31.10
2018-07-30T09:16:35.485Z,31.10
2018-07-30T09:17:35.180Z,30.42
2018-07-30T09:18:35.157Z,30.38
2018-07-30T09:19:35.144Z,30.36
2018-07-30T09:20:35.131Z,30.46
2018-07-30T09:21:35.117Z,30.28
2018-07-30T09:22:35.105Z,30.49
2018-07-30T09:23:35.092Z,31.10
2018-07-30T09:25:18.454Z,32.84
2018-07-30T09:26:17.432Z,32.83
2018-07-30T09:27:59.579Z,32.62
2018-07-30T09:28:59.364Z,32.77
2018-07-30T09:29:59.554Z,33.20
2018-07-30T09:30:59.545Z,33.24
2018-07-30T09:31:59.331Z,32.98
2018-07-30T09:32:59.449Z,32.98
2018-07-30T09:33:59.308Z,32.81
2018-07-30T09:34:59.295Z,31.91
2018-07-30T09:35:59.283Z,31.53
2018-07-30T09:36:59.274Z,31.18
2018-07-30T09:37:59.259Z,31.22
2018-07-30T09:38:59.250Z,30.38
2018-07-30T09:39:59.237Z,29.73
2018-07-30T09:40:59.226Z,29.44
2018-07-30T09:41:59.218Z,29.25
2018-07-30T09:42:59.203Z,29.33
2018-07-30T09:43:59.200Z,29.11
2018-07-30T09:44:59.200Z,29.18
2018-07-30T09:45:59.164Z,29.33
2018-07-30T09:46:59.155Z,29.49
2018-07-30T09:47:59.139Z,29.57
2018-07-30T09:48:59.124Z,29.64
2018-07-30T09:49:59.111Z,29.58
2018-07-30T09:50:59.099Z,29.88
2018-07-30T09:51:59.088Z,30.21
2018-07-30T09:52:59.081Z,30.16
2018-07-30T09:53:59.059Z,30.18
2018-07-30T09:54:59.046Z,29.85
2018-07-30T09:55:59.033Z,29.64
2018-07-30T09:56:59.037Z,29.69
2018-07-30T09:57:59.007Z,29.60
2018-07-30T09:58:58.994Z,29.42
2018-07-30T09:59:58.980Z,29.63
2018-07-30T10:00:58.966Z,29.27
2018-07-30T10:01:58.958Z,29.21
2018-07-30T10:03:00.011Z,29.52
2018-07-30T10:13:07.453Z,29.85
2018-07-30T10:14:06.984Z,29.67
2018-07-30T10:15:06.969Z,29.64
2018-07-30T10:16:07.161Z,29.64
2018-07-30T10:17:06.939Z,29.67
2018-07-30T10:18:07.083Z,30.03
2018-07-30T10:19:06.911Z,30.11
2018-07-30T10:20:06.897Z,30.22
2018-07-30T10:21:06.883Z,30.13
2018-07-30T10:22:06.869Z,30.04
2018-07-30T10:23:07.058Z,30.01
2018-07-30T10:24:06.842Z,30.15
2018-07-30T10:25:07.030Z,30.19
2018-07-30T10:26:06.812Z,30.45
2018-07-30T10:27:06.809Z,30.81
2018-07-30T10:28:06.790Z,31.00
2018-07-30T10:29:06.774Z,31.30
2018-07-30T10:30:06.760Z,31.50
2018-07-30T10:31:07.203Z,31.90
2018-07-30T10:32:06.734Z,31.72
2018-07-30T10:33:06.923Z,32.07
2018-07-30T10:34:06.917Z,32.31
2018-07-30T10:35:49.057Z,32.25
2018-07-30T10:36:49.206Z,32.21
2018-07-30T10:37:52.713Z,32.43
2018-07-30T10:38:49.021Z,32.65
2018-07-30T10:39:49.045Z,32.66
2018-07-30T10:40:49.601Z,32.71
2018-07-30T10:41:48.784Z,32.65
2018-07-30T10:42:49.070Z,32.68
2018-07-30T10:43:48.967Z,32.50
2018-07-30T10:44:48.948Z,32.10
2018-07-30T10:45:49.745Z,31.72
2018-07-30T10:46:48.723Z,32.31
2018-07-30T10:47:48.915Z,32.85
2018-07-30T10:48:48.698Z,33.37
2018-07-30T10:49:49.501Z,33.94
2018-07-30T10:50:48.879Z,34.46
2018-07-30T10:51:48.902Z,35.09
2018-07-30T10:52:48.857Z,34.12
2018-07-30T10:55:13.171Z,32.31
2018-07-30T10:56:12.959Z,32.31
2018-07-30T10:57:13.155Z,32.51
2018-07-30T10:58:13.146Z,32.39
2018-07-30T10:59:12.929Z,32.68
2018-07-30T11:00:16.009Z,32.61
2018-07-30T11:01:13.111Z,32.22
2018-07-30T11:02:13.104Z,31.94
2018-07-30T11:03:13.096Z,32.27
2018-07-30T11:04:13.084Z,32.40
2018-07-30T11:05:13.073Z,32.12
2018-07-30T11:06:12.861Z,31.85
2018-07-30T11:07:12.850Z,31.87
2018-07-30T11:08:12.842Z,32.27
2018-07-30T11:09:13.804Z,32.69
2018-07-30T11:10:13.023Z,32.66
2018-07-30T11:11:13.012Z,33.09
2018-07-30T11:12:13.104Z,33.40
2018-07-30T11:13:12.789Z,33.75
2018-07-30T11:14:12.777Z,33.97
2018-07-30T11:15:12.831Z,33.86
2018-07-30T11:16:12.774Z,34.26
2018-07-30T11:17:12.949Z,34.42
2018-07-30T11:18:12.988Z,34.67
2018-07-30T11:19:13.339Z,34.84
2018-07-30T11:20:12.920Z,34.90
2018-07-30T11:21:12.920Z,34.91
2018-07-30T11:22:12.698Z,35.13
2018-07-30T11:23:12.692Z,35.36
2018-07-30T11:24:12.884Z,35.96
2018-07-30T11:25:12.875Z,36.48
2018-07-30T11:26:12.868Z,37.08
2018-07-30T11:27:12.861Z,36.34
2018-07-30T11:28:12.685Z,35.13
2018-07-30T11:29:12.845Z,34.81
2018-07-30T11:30:12.635Z,33.92
2018-07-30T11:31:54.999Z,32.78
2018-07-30T11:32:54.988Z,32.76
2018-07-30T11:33:54.777Z,32.39
2018-07-30T11:34:54.775Z,31.78
2018-07-30T11:35:55.012Z,32.25
2018-07-30T11:36:54.752Z,32.53
2018-07-30T11:37:54.747Z,32.62
2018-07-30T11:38:54.940Z,32.35
2018-07-30T11:39:54.929Z,32.19
2018-07-30T11:40:54.919Z,31.95
2018-07-30T11:41:54.708Z,32.32
2018-07-30T11:42:54.748Z,32.59
2018-07-30T11:43:54.697Z,33.05
2018-07-30T11:44:54.682Z,33.00
2018-07-30T11:45:54.676Z,33.57
2018-07-30T11:46:54.663Z,34.45
2018-07-30T11:47:54.856Z,35.36
2018-07-30T11:48:54.652Z,35.54
2018-07-30T11:49:54.665Z,35.74
2018-07-30T11:50:54.628Z,35.65
2018-07-30T11:51:54.622Z,35.49
2018-07-30T11:52:54.819Z,35.39
2018-07-30T11:53:54.813Z,35.15
2018-07-30T11:54:54.597Z,34.94
2018-07-30T11:55:54.792Z,34.53
2018-07-30T11:56:54.582Z,34.30
2018-07-30T11:57:54.575Z,33.56
2018-07-30T11:58:54.780Z,33.24
2018-07-30T11:59:54.962Z,32.78
2018-07-30T12:00:54.754Z,32.51
2018-07-30T12:01:54.903Z,32.71
2018-07-30T12:02:58.570Z,32.95
2018-07-30T12:03:54.725Z,32.68
2018-07-30T12:04:55.526Z,32.88
2018-07-30T12:05:54.705Z,33.31
2018-07-30T12:06:54.696Z,33.60
2018-07-30T12:07:54.483Z,33.78
2018-07-30T12:08:54.758Z,33.65
2018-07-30T12:09:54.465Z,33.60
2018-07-30T12:10:54.450Z,33.44
2018-07-30T12:11:54.462Z,33.38
2018-07-30T12:12:54.432Z,33.59
2018-07-30T12:13:54.419Z,33.72
2018-07-30T12:16:36.764Z,33.41
2018-07-30T12:17:36.548Z,34.37
2018-07-30T12:18:36.548Z,34.78
2018-07-30T12:19:36.530Z,34.76
2018-07-30T12:20:36.520Z,34.95
2018-07-30T12:21:36.540Z,35.40
2018-07-30T12:22:36.497Z,36.05
2018-07-30T12:23:36.761Z,35.40
2018-07-30T12:24:36.683Z,35.17
2018-07-30T12:25:36.678Z,34.78
2018-07-30T12:26:36.667Z,34.87
2018-07-30T12:27:36.657Z,34.67
2018-07-30T12:28:36.444Z,34.45
2018-07-30T12:29:36.441Z,34.14
2018-07-30T12:30:36.697Z,33.78
2018-07-30T12:31:36.455Z,34.14
2018-07-30T12:32:36.417Z,34.65
2018-07-30T12:33:36.409Z,34.52
2018-07-30T12:34:36.702Z,34.38
2018-07-30T12:35:36.601Z,34.00
2018-07-30T12:36:36.398Z,33.59
2018-07-30T12:37:36.390Z,32.98
2018-07-30T12:38:36.583Z,32.76
2018-07-30T12:39:38.988Z,32.66
2018-07-30T12:40:36.561Z,32.76
2018-07-30T12:41:36.552Z,32.54
2018-07-30T12:42:36.544Z,32.51
2018-07-30T12:43:36.538Z,32.65
2018-07-30T12:44:36.324Z,32.58
2018-07-30T12:45:37.735Z,32.51
2018-07-30T12:46:36.521Z,32.87
2018-07-30T12:47:36.310Z,33.03
2018-07-30T12:48:36.287Z,33.02
2018-07-30T12:49:36.277Z,32.81
2018-07-30T12:50:36.576Z,32.35
2018-07-30T12:51:36.269Z,32.21
2018-07-30T12:52:36.253Z,32.40
2018-07-30T12:53:36.234Z,32.63
2018-07-30T12:54:36.235Z,33.09
2018-07-30T12:55:36.216Z,32.76
2018-07-30T12:56:36.204Z,33.28
2018-07-30T12:57:36.344Z,33.77
2018-07-30T12:58:36.188Z,34.48
2018-07-30T12:59:36.179Z,35.02
2018-07-30T13:00:36.165Z,35.10
2018-07-30T13:01:36.156Z,35.40
2018-07-30T13:02:36.145Z,35.27
2018-07-30T13:03:36.135Z,35.18
2018-07-30T13:04:36.125Z,34.80
2018-07-30T13:05:36.117Z,34.64
2018-07-30T13:06:36.108Z,33.90
2018-07-30T13:07:36.107Z,33.57
2018-07-30T13:08:36.089Z,33.24
2018-07-30T13:09:36.079Z,32.32
2018-07-30T13:10:36.071Z,32.32
2018-07-30T13:11:36.062Z,32.34
2018-07-30T13:12:36.055Z,32.24
2018-07-30T13:13:36.088Z,32.28
2018-07-30T13:14:36.032Z,32.49
2018-07-30T13:15:36.223Z,32.50
2018-07-30T13:16:36.015Z,32.58